Time;durP1;ratioP1;P1;durP2;ratioP2;P2;SDS_P1;SDS_P2;PMS_P1;PMS_P2;Temp;Humidity;BMP_temperature;BMP_pressure;BME280_temperature;BME280_humidity;BME280_pressure;Samples;Min_cycle;Max_cycle;Signal;HPM_P1;HPM_P2
2022/10/26 00:07:24;;;;;;;1999.90;999.90;;;13.50;99.90;;;;;;6640350;88;20290;-76
2022/10/26 00:17:24;;;;;;;1999.90;999.90;;;13.50;99.90;;;;;;6630278;88;20732;-77
2022/10/26 00:27:25;;;;;;;1999.90;999.90;;;13.50;99.90;;;;;;6635706;88;20635;-78
2022/10/26 00:37:25;;;;;;;1999.90;999.90;;;13.60;99.90;;;;;;6638472;88;20243;-77
2022/10/26 00:48:05;;;;;;;1999.90;999.90;;;13.60;99.90;;;;;;6639840;89;20185;-77
2022/10/26 00:58:08;;;;;;;1999.90;999.90;;;13.70;99.90;;;;;;6652007;88;20232;-76
2022/10/26 01:08:09;;;;;;;1999.90;999.90;;;13.70;99.90;;;;;;6634059;88;20186;-76
2022/10/26 01:18:33;;;;;;;1999.90;999.90;;;13.80;99.90;;;;;;6631121;89;20228;-76
2022/10/26 01:29:05;;;;;;;1999.90;999.90;;;13.80;99.90;;;;;;6629548;89;20631;-76
2022/10/26 01:39:13;;;;;;;1999.90;999.90;;;13.90;99.90;;;;;;6625692;89;21145;-77
2022/10/26 01:49:18;;;;;;;1999.90;999.90;;;13.80;99.90;;;;;;6629491;89;20196;-77
2022/10/26 01:59:40;;;;;;;1999.90;999.90;;;13.90;99.90;;;;;;6640905;88;20684;-76
2022/10/26 02:09:48;;;;;;;1999.90;999.90;;;13.90;99.90;;;;;;6633193;89;20280;-76
2022/10/26 02:19:59;;;;;;;1999.90;999.90;;;14.00;99.90;;;;;;6634505;89;20704;-77
2022/10/26 02:30:01;;;;;;;1999.90;999.90;;;14.00;99.90;;;;;;6641263;88;20218;-76
2022/10/26 02:40:07;;;;;;;1999.90;999.90;;;14.10;99.90;;;;;;6631456;89;20939;-77
2022/10/26 02:50:08;;;;;;;1999.90;999.90;;;14.00;99.90;;;;;;6641254;88;20629;-78
2022/10/26 03:00:13;;;;;;;1999.90;999.90;;;14.10;99.90;;;;;;6631136;89;20209;-77
2022/10/26 03:10:13;;;;;;;1999.90;999.90;;;14.00;99.90;;;;;;6640167;89;20208;-78
2022/10/26 03:20:14;;;;;;;1999.90;999.90;;;13.90;99.90;;;;;;6633259;88;21008;-76
2022/10/26 03:30:14;;;;;;;1999.90;999.90;;;13.90;99.90;;;;;;6633199;88;20226;-76
2022/10/26 03:40:15;;;;;;;1999.90;999.90;;;13.80;99.90;;;;;;6643509;88;20687;-77
2022/10/26 03:50:18;;;;;;;1999.90;999.90;;;13.80;99.90;;;;;;6639072;88;20188;-77
2022/10/26 04:00:19;;;;;;;1999.90;999.90;;;13.70;99.90;;;;;;6637427;88;20366;-77
2022/10/26 04:10:20;;;;;;;1999.90;999.90;;;13.60;99.90;;;;;;6638740;89;20244;-76
2022/10/26 04:20:20;;;;;;;1999.90;999.90;;;13.60;99.90;;;;;;6628362;89;20209;-77
2022/10/26 04:30:21;;;;;;;1999.90;999.90;;;13.50;99.90;;;;;;6634273;89;20209;-77
2022/10/26 04:40:21;;;;;;;1999.90;999.90;;;13.50;99.90;;;;;;6646236;88;20783;-77
2022/10/26 04:50:22;;;;;;;1999.90;999.90;;;13.50;99.90;;;;;;6639387;89;20296;-77
2022/10/26 05:00:22;;;;;;;1999.90;999.90;;;13.50;99.90;;;;;;6633450;88;20282;-78
2022/10/26 05:10:24;;;;;;;1999.90;999.90;;;13.50;99.90;;;;;;6655389;78;20198;-78
2022/10/26 05:20:29;;;;;;;1999.90;999.90;;;13.50;99.90;;;;;;6634246;88;20185;-77
2022/10/26 05:30:30;;;;;;;;;;;13.50;99.90;;;;;;6638775;89;20239;-78
2022/10/26 05:40:31;;;;;;;1999.90;999.90;;;13.50;99.90;;;;;;6636816;89;20637;-77
2022/10/26 05:50:31;;;;;;;1999.90;999.90;;;13.50;99.90;;;;;;6642148;88;21029;-77
2022/10/26 06:00:32;;;;;;;1999.90;999.90;;;13.50;99.90;;;;;;6636031;88;20209;-77
2022/10/26 06:10:33;;;;;;;1999.90;999.90;;;13.60;99.90;;;;;;6633295;89;20651;-78
2022/10/26 06:21:01;;;;;;;1999.90;999.90;;;13.60;99.90;;;;;;6625335;89;20221;-77
2022/10/26 06:31:02;;;;;;;1999.90;999.90;;;13.70;99.90;;;;;;6632565;89;20196;-78
2022/10/26 06:41:04;;;;;;;1999.90;999.90;;;13.70;99.90;;;;;;6640651;88;20764;-77
2022/10/26 06:51:08;;;;;;;1999.90;999.90;;;13.80;99.90;;;;;;6634372;88;20230;-78
2022/10/26 07:01:11;;;;;;;1999.90;999.90;;;13.80;99.90;;;;;;6639583;89;20263;-77
2022/10/26 07:11:12;;;;;;;1999.90;999.90;;;13.90;99.90;;;;;;6633628;89;20203;-77
2022/10/26 07:21:12;;;;;;;1999.90;999.90;;;14.00;99.90;;;;;;6642862;89;20200;-77
2022/10/26 07:31:13;;;;;;;1999.90;999.90;;;14.10;99.90;;;;;;6629431;88;20202;-78
2022/10/26 07:41:13;;;;;;;1999.90;999.90;;;14.20;99.90;;;;;;6633992;89;20216;-77
2022/10/26 07:51:14;;;;;;;1999.90;999.90;;;14.20;99.90;;;;;;6636819;88;20274;-78
2022/10/26 08:01:15;;;;;;;1999.90;999.90;;;14.30;99.90;;;;;;6637933;88;20219;-78
2022/10/26 08:11:15;;;;;;;1999.90;999.90;;;14.20;99.90;;;;;;6642419;89;20200;-77
2022/10/26 08:21:17;;;;;;;1999.90;999.90;;;14.20;99.90;;;;;;6635614;88;20555;-77
2022/10/26 08:31:17;;;;;;;1999.90;999.90;;;14.30;99.90;;;;;;6637426;89;20587;-77
2022/10/26 08:41:32;;;;;;;1999.90;999.90;;;14.40;99.90;;;;;;6635778;89;20194;-77
2022/10/26 08:51:36;;;;;;;1999.90;999.90;;;14.70;99.90;;;;;;6643266;88;20193;-77
2022/10/26 09:01:37;;;;;;;1999.90;999.90;;;15.00;99.90;;;;;;6633143;89;20707;-76
2022/10/26 09:12:17;;;;;;;1999.90;999.90;;;15.40;99.90;;;;;;6637373;88;20264;-77
2022/10/26 09:22:41;;;;;;;1999.90;999.90;;;15.60;99.90;;;;;;6639820;88;20226;-77
2022/10/26 09:32:46;;;;;;;1999.90;999.90;;;15.70;99.90;;;;;;6637865;88;20200;-77
2022/10/26 09:43:04;;;;;;;1999.90;999.90;;;16.60;99.90;;;;;;6637404;89;20203;-77
2022/10/26 09:53:04;;;;;;;1999.90;999.90;;;17.30;99.90;;;;;;6636677;88;20216;-77
2022/10/26 10:03:23;;;;;;;1999.90;999.90;;;17.70;99.90;;;;;;6637708;88;20215;-78
2022/10/26 10:13:27;;;;;;;1999.90;999.90;;;18.30;99.90;;;;;;6633626;89;20238;-78
2022/10/26 10:23:28;;;;;;;;;;;19.80;99.90;;;;;;6634269;88;20319;-77
2022/10/26 10:33:34;;;;;;;1999.90;999.90;;;20.00;99.90;;;;;;6634535;89;20242;-77
2022/10/26 10:43:35;;;;;;;1999.90;999.90;;;21.30;99.90;;;;;;6636265;88;20217;-78
2022/10/26 10:53:49;;;;;;;1999.90;999.90;;;22.20;99.90;;;;;;6635147;89;20637;-78
2022/10/26 11:03:49;;;;;;;;;;;23.00;99.90;;;;;;6639846;78;20265;-74
2022/10/26 11:14:08;;;;;;;1999.90;999.90;;;22.80;99.90;;;;;;6611898;88;20072;-76
2022/10/26 11:24:27;;;;;;;1999.90;999.90;;;21.60;99.90;;;;;;6607558;89;20644;-74
2022/10/26 11:34:45;;;;;;;1999.90;999.90;;;21.60;99.90;;;;;;6617774;89;20289;-76
2022/10/26 11:45:00;;;;;;;1999.90;999.90;;;22.30;99.90;;;;;;6617648;88;20681;-75
2022/10/26 11:55:03;;;;;;;1999.90;999.90;;;22.20;99.90;;;;;;6621968;88;20659;-75
2022/10/26 12:05:37;;;;;;;1999.90;999.90;;;23.90;99.90;;;;;;6625806;88;20318;-74
2022/10/26 12:15:47;;;;;;;1999.90;999.90;;;24.00;99.90;;;;;;6613660;89;20717;-76
2022/10/26 12:25:48;;;;;;;1999.90;999.90;;;25.10;99.90;;;;;;6615110;89;20542;-75
2022/10/26 12:35:49;;;;;;;1999.90;999.90;;;25.70;99.90;;;;;;6619504;88;20197;-75
2022/10/26 12:46:11;;;;;;;1999.90;999.90;;;24.40;99.90;;;;;;6614117;89;20248;-74
2022/10/26 12:56:17;;;;;;;1999.90;999.90;;;23.50;99.90;;;;;;6615811;89;20220;-75
2022/10/26 13:06:39;;;;;;;1999.90;999.90;;;23.60;99.90;;;;;;6610748;89;20620;-77
2022/10/26 13:16:44;;;;;;;1999.90;999.90;;;23.80;99.90;;;;;;6617781;89;20202;-76
2022/10/26 13:27:14;;;;;;;1999.90;999.90;;;25.00;99.90;;;;;;6613397;89;20360;-75
2022/10/26 13:37:24;;;;;;;1999.90;999.90;;;25.70;99.90;;;;;;6611843;89;20482;-75
2022/10/26 13:47:43;;;;;;;1999.90;999.90;;;25.10;99.90;;;;;;6614036;89;20190;-75
2022/10/26 13:57:55;;;;;;;1999.90;999.90;;;24.80;99.90;;;;;;6621986;88;20732;-75
2022/10/26 14:07:57;;;;;;;1999.90;999.90;;;24.70;99.90;;;;;;6608397;89;20250;-77
2022/10/26 14:18:00;;;;;;;1999.90;999.90;;;24.60;99.90;;;;;;6610371;89;20189;-75
2022/10/26 14:28:03;;;;;;;1999.90;999.90;;;24.50;99.90;;;;;;6609873;89;20888;-75
2022/10/26 14:38:14;;;;;;;1999.90;999.90;;;23.90;99.90;;;;;;6612080;89;20254;-76
2022/10/26 14:48:19;;;;;;;1999.90;999.90;;;23.80;99.90;;;;;;6614842;89;20582;-77
2022/10/26 14:58:26;;;;;;;1999.90;999.90;;;23.40;99.90;;;;;;6613119;89;20328;-76
2022/10/26 15:08:43;;;;;;;1999.90;999.90;;;23.20;99.90;;;;;;6611642;89;20219;-76
2022/10/26 15:18:46;;;;;;;1999.90;999.90;;;23.10;99.90;;;;;;6611052;89;20320;-75
2022/10/26 15:28:48;;;;;;;1999.90;999.90;;;22.80;99.90;;;;;;6620573;89;20200;-77
2022/10/26 15:38:49;;;;;;;1999.90;999.90;;;22.30;99.90;;;;;;6621529;89;20197;-76
2022/10/26 15:49:01;;;;;;;1999.90;999.90;;;22.00;99.90;;;;;;6608920;89;20765;-77
2022/10/26 15:59:02;;;;;;;1999.90;999.90;;;21.20;99.90;;;;;;6611655;89;20205;-76
2022/10/26 16:09:05;;;;;;;1999.90;999.90;;;20.70;99.90;;;;;;6613862;89;20193;-75
2022/10/26 16:19:05;;;;;;;1999.90;999.90;;;20.30;99.90;;;;;;6614507;89;20259;-76
2022/10/26 16:29:06;;;;;;;1999.90;999.90;;;20.00;99.90;;;;;;6615191;89;20664;-76
2022/10/26 16:39:08;;;;;;;1999.90;999.90;;;19.60;99.90;;;;;;6614409;89;20280;-76
2022/10/26 16:49:09;;;;;;;1999.90;999.90;;;19.60;99.90;;;;;;6616639;89;20198;-76
2022/10/26 16:59:09;;;;;;;1999.90;999.90;;;19.40;99.90;;;;;;6611927;89;20203;-77
2022/10/26 17:09:10;;;;;;;1999.90;999.90;;;19.00;99.90;;;;;;6628137;78;20213;-78
2022/10/26 17:19:11;;;;;;;1999.90;999.90;;;18.60;99.90;;;;;;6618383;89;20186;-78
2022/10/26 17:29:12;;;;;;;1999.90;999.90;;;18.50;99.90;;;;;;6624917;89;20189;-78
2022/10/26 17:39:13;;;;;;;1999.90;999.90;;;18.50;99.90;;;;;;6618682;89;20233;-80
2022/10/26 17:49:13;;;;;;;1999.90;999.90;;;18.40;99.90;;;;;;6615407;89;21073;-78
2022/10/26 17:59:14;;;;;;;1999.90;999.90;;;18.50;99.90;;;;;;6629296;88;20669;-79
2022/10/26 18:09:14;;;;;;;1999.90;999.90;;;18.40;99.90;;;;;;6624111;89;20233;-78
2022/10/26 18:19:15;;;;;;;1999.90;999.90;;;18.20;99.90;;;;;;6620039;89;20191;-79
2022/10/26 18:29:15;;;;;;;1999.90;999.90;;;18.10;99.90;;;;;;6630258;89;20219;-81
2022/10/26 18:39:16;;;;;;;1999.90;999.90;;;18.10;99.90;;;;;;6625787;89;20265;-79
2022/10/26 18:49:20;;;;;;;1999.90;999.90;;;18.00;99.90;;;;;;6625529;89;20734;-80
2022/10/26 18:59:20;;;;;;;1999.90;999.90;;;17.90;99.90;;;;;;6627386;89;20318;-80
2022/10/26 19:09:21;;;;;;;1999.90;999.90;;;17.70;99.90;;;;;;6618926;89;20261;-80
2022/10/26 19:19:24;;;;;;;1999.90;999.90;;;17.70;99.90;;;;;;6604805;89;20699;-79
2022/10/26 19:29:24;;;;;;;1999.90;999.90;;;17.50;99.90;;;;;;6635455;89;20178;-81
2022/10/26 19:39:26;;;;;;;1999.90;999.90;;;17.50;99.90;;;;;;6631789;89;20214;-80
2022/10/26 19:49:27;;;;;;;1999.90;999.90;;;17.20;99.90;;;;;;6633455;89;20189;-79
2022/10/26 19:59:27;;;;;;;1999.90;999.90;;;16.70;99.90;;;;;;6620335;89;20204;-79
2022/10/26 20:09:28;;;;;;;1999.90;999.90;;;16.50;99.90;;;;;;6624721;89;20218;-80
2022/10/26 20:19:29;;;;;;;1999.90;999.90;;;16.30;99.90;;;;;;6629885;89;20189;-80
2022/10/26 20:29:29;;;;;;;1999.90;999.90;;;16.10;99.90;;;;;;6639513;88;20189;-81
2022/10/26 20:39:30;;;;;;;1999.90;999.90;;;16.00;99.90;;;;;;6650540;89;20202;-81
2022/10/26 20:49:31;;;;;;;1999.90;999.90;;;15.90;99.90;;;;;;6644843;89;20235;-79
2022/10/26 20:59:38;;;;;;;1999.90;999.90;;;15.70;99.90;;;;;;6627457;89;20267;-79
2022/10/26 21:09:39;;;;;;;1999.90;999.90;;;15.50;99.90;;;;;;6626477;89;20204;-80
2022/10/26 21:19:40;;;;;;;1999.90;999.90;;;15.50;99.90;;;;;;6626983;89;20218;-79
2022/10/26 21:29:41;;;;;;;1999.90;999.90;;;15.40;99.90;;;;;;6632649;89;20283;-79
2022/10/26 21:39:41;;;;;;;1999.90;999.90;;;15.30;99.90;;;;;;6626332;89;20243;-80
2022/10/26 21:49:42;;;;;;;1999.90;999.90;;;15.30;99.90;;;;;;6629783;89;20328;-80
2022/10/26 21:59:42;;;;;;;1999.90;999.90;;;15.40;99.90;;;;;;6682421;88;20230;-79
2022/10/26 22:09:43;;;;;;;1999.90;999.90;;;15.30;99.90;;;;;;6711751;88;20189;-80
2022/10/26 22:19:44;;;;;;;1999.90;999.90;;;15.20;99.90;;;;;;6716505;88;20197;-81
2022/10/26 22:29:44;;;;;;;1999.90;999.90;;;15.20;99.90;;;;;;6711032;88;20320;-80
2022/10/26 22:39:45;;;;;;;1999.90;999.90;;;15.20;99.90;;;;;;6716647;88;20186;-80
2022/10/26 22:49:45;;;;;;;1999.90;999.90;;;15.40;99.90;;;;;;6712688;88;20248;-80
2022/10/26 22:59:46;;;;;;;1999.90;999.90;;;15.20;99.90;;;;;;6709265;88;20885;-79
2022/10/26 23:10:27;;;;;;;1999.90;999.90;;;15.10;99.90;;;;;;6643363;78;20205;-77
2022/10/26 23:20:31;;;;;;;1999.90;999.90;;;15.00;99.90;;;;;;6701341;88;20257;-77
2022/10/26 23:30:31;;;;;;;1999.90;999.90;;;14.70;99.90;;;;;;6711792;88;20226;-77
2022/10/26 23:40:32;;;;;;;1999.90;999.90;;;14.50;99.90;;;;;;6706284;88;20642;-77
2022/10/26 23:50:32;;;;;;;1999.90;999.90;;;14.60;99.90;;;;;;6713833;88;20190;-77
